Time;durP1;ratioP1;P1;durP2;ratioP2;P2;SDS_P1;SDS_P2;PMS_P1;PMS_P2;Temp;Humidity;BMP_temperature;BMP_pressure;BME280_temperature;BME280_humidity;BME280_pressure;Samples;Min_cycle;Max_cycle;Signal;HPM_P1;HPM_P2
2022/09/03 00:02:35;;;;;;;5.95;3.10;;;;;;;21.12;70.89;98264.25;5008625;28;20507;-59
2022/09/03 00:05:06;;;;;;;5.45;2.72;;;;;;;21.28;71.15;98285.81;5016154;28;20029;-57
2022/09/03 00:07:46;;;;;;;5.47;3.03;;;;;;;20.91;71.32;98232.97;5008645;28;20471;-59
2022/09/03 00:10:34;;;;;;;5.82;3.00;;;;;;;21.32;71.04;98279.06;5013359;28;20037;-59
2022/09/03 00:13:02;;;;;;;5.88;2.95;;;;;;;21.30;70.48;98267.88;5018793;28;20040;-60
2022/09/03 00:15:28;;;;;;;6.68;3.28;;;;;;;21.22;70.81;98255.00;5021765;28;20444;-57
2022/09/03 00:17:57;;;;;;;6.75;3.35;;;;;;;21.31;70.88;98262.38;5000434;28;20038;-59
2022/09/03 00:20:45;;;;;;;7.15;2.95;;;;;;;21.39;70.94;98271.03;5016548;28;20048;-61
2022/09/03 00:23:18;;;;;;;6.35;3.10;;;;;;;21.19;70.58;98240.38;5017727;28;20033;-61
2022/09/03 00:25:51;;;;;;;5.43;2.83;;;;;;;21.38;70.56;98262.31;5018315;28;20034;-58
2022/09/03 00:28:23;;;;;;;5.57;2.88;;;;;;;21.46;70.54;98259.38;5012998;28;20044;-59
2022/09/03 00:30:52;;;;;;;6.93;2.92;;;;;;;21.42;70.50;98249.44;5016702;28;20416;-58
2022/09/03 00:33:21;;;;;;;9.80;3.15;;;;;;;21.35;70.64;98259.31;5019049;28;20468;-58
2022/09/03 00:36:11;;;;;;;7.23;3.20;;;;;;;21.15;71.55;98252.41;4999109;28;20030;-58
2022/09/03 00:38:37;;;;;;;6.82;3.17;;;;;;;20.97;72.05;98239.22;5012099;28;20022;-60
2022/09/03 00:41:05;;;;;;;7.97;3.20;;;;;;;20.98;72.25;98240.84;4982749;28;20482;-58
2022/09/03 00:43:34;;;;;;;7.15;3.50;;;;;;;20.89;72.55;98237.69;5015042;28;20034;-60
2022/09/03 00:46:22;;;;;;;5.88;3.42;;;;;;;20.45;73.57;98213.91;5005141;28;20025;-61
2022/09/03 00:49:07;;;;;;;6.40;3.22;;;;;;;20.50;74.23;98256.34;5014189;28;20057;-60
2022/09/03 00:51:32;;;;;;;8.20;3.45;;;;;;;20.73;73.23;98261.00;5017821;28;20039;-60
2022/09/03 00:54:09;;;;;;;5.85;3.05;;;;;;;20.56;73.38;98241.44;5009877;28;20481;-60
2022/09/03 00:56:42;;;;;;;7.35;3.17;;;;;;;20.88;72.67;98265.94;5012344;28;20026;-58
2022/09/03 00:59:07;;;;;;;7.70;3.75;;;;;;;20.91;72.38;98269.97;5011047;28;20739;-58
2022/09/03 01:02:00;;;;;;;8.45;3.63;;;;;;;20.71;72.68;98228.72;5007766;28;20087;-61
2022/09/03 01:04:51;;;;;;;7.63;4.30;;;;;;;20.97;72.07;98270.94;5001409;28;20072;-60
2022/09/03 01:07:23;;;;;;;8.57;4.03;;;;;;;21.02;71.95;98271.88;5002820;28;20036;-59
2022/09/03 01:10:17;;;;;;;8.05;4.20;;;;;;;20.97;72.15;98284.16;5012350;28;20030;-60
2022/09/03 01:12:54;;;;;;;9.75;4.32;;;;;;;21.02;71.94;98279.81;5016571;28;20522;-61
2022/09/03 01:15:36;;;;;;;6.32;3.90;;;;;;;20.98;72.43;98291.06;5013072;28;20029;-60
2022/09/03 01:18:15;;;;;;;6.70;3.70;;;;;;;21.07;71.76;98301.09;5019913;28;20057;-59
2022/09/03 01:20:58;;;;;;;6.90;4.27;;;;;;;21.07;71.79;98295.03;5012372;28;20109;-59
2022/09/03 01:23:45;;;;;;;8.85;4.43;;;;;;;20.97;71.75;98261.16;5025095;28;20026;-59
2022/09/03 01:26:32;;;;;;;8.30;4.80;;;;;;;21.11;71.85;98285.63;5040388;28;20053;-58
2022/09/03 01:28:58;;;;;;;7.40;4.90;;;;;;;21.10;72.94;98284.81;5014819;28;20017;-59
2022/09/03 01:32:02;;;;;;;6.30;4.38;;;;;;;20.93;73.66;98284.56;5001688;28;20524;-61
2022/09/03 01:34:56;;;;;;;8.13;5.00;;;;;;;20.95;74.15;98287.00;5022279;28;20107;-60
2022/09/03 01:37:37;;;;;;;7.95;5.32;;;;;;;20.98;76.49;98294.50;5010561;28;20038;-58
2022/09/03 01:40:17;;;;;;;8.13;5.20;;;;;;;20.34;78.17;98243.69;5023833;28;20095;-60
2022/09/03 01:43:09;;;;;;;7.80;4.97;;;;;;;20.48;79.60;98311.19;5018680;28;20326;-59
2022/09/03 01:45:39;;;;;;;7.38;4.70;;;;;;;20.40;82.20;98311.44;5022805;28;20025;-59
2022/09/03 01:48:29;;;;;;;8.25;5.07;;;;;;;20.12;81.70;98323.25;5014187;28;20034;-59
2022/09/03 01:51:07;;;;;;;8.73;4.90;;;;;;;20.00;83.25;98327.56;4991818;28;20129;-61
2022/09/03 01:53:54;;;;;;;10.68;5.65;;;;;;;19.91;83.34;98331.47;5016293;28;20055;-60
2022/09/03 01:56:38;;;;;;;8.48;5.82;;;;;;;19.70;86.74;98335.22;5004504;28;20037;-61
2022/09/03 01:59:16;;;;;;;8.15;5.63;;;;;;;19.86;87.70;98342.69;5016878;28;20037;-59
2022/09/03 02:01:52;;;;;;;9.38;6.18;;;;;;;19.90;86.96;98348.34;5015724;28;20496;-59
2022/09/03 02:04:22;;;;;;;7.57;5.75;;;;;;;20.05;86.72;98353.34;5015882;28;20026;-59
2022/09/03 02:06:48;;;;;;;9.82;6.53;;;;;;;19.73;87.29;98348.00;5004772;28;20076;-60
2022/09/03 02:09:17;;;;;;;11.20;6.95;;;;;;;19.70;89.33;98346.56;5024635;28;20028;-59
2022/09/03 02:11:46;;;;;;;9.55;6.38;;;;;;;19.65;91.19;98308.66;5011879;28;20337;-59
2022/09/03 02:14:12;;;;;;;9.18;6.88;;;;;;;19.96;91.70;98332.47;5013881;28;20060;-60
2022/09/03 02:16:38;;;;;;;10.23;6.85;;;;;;;19.60;90.90;98277.63;5009940;28;20054;-59
2022/09/03 02:19:09;;;;;;;8.95;6.00;;;;;;;19.81;88.28;98331.94;5015377;28;20068;-59
2022/09/03 02:21:37;;;;;;;8.15;6.60;;;;;;;19.81;88.83;98333.78;5019893;28;20036;-58
2022/09/03 02:24:04;;;;;;;8.30;6.03;;;;;;;19.99;90.42;98339.16;5009979;28;20033;-57
2022/09/03 02:26:30;;;;;;;7.32;6.00;;;;;;;20.11;89.31;98344.56;5003813;28;20014;-59
2022/09/03 02:28:56;;;;;;;7.18;5.40;;;;;;;20.13;88.92;98339.88;5019021;28;20402;-59
2022/09/03 02:31:22;;;;;;;8.68;6.10;;;;;;;20.06;87.20;98332.00;4999501;28;20614;-59
2022/09/03 02:33:49;;;;;;;8.73;5.95;;;;;;;19.87;87.64;98309.19;5018828;28;20103;-57
2022/09/03 02:36:18;;;;;;;8.25;5.85;;;;;;;19.97;88.92;98328.81;5003335;28;20531;-55
2022/09/03 02:38:45;;;;;;;8.50;6.18;;;;;;;19.88;89.74;98340.63;5027881;28;20026;-61
2022/09/03 02:41:13;;;;;;;8.90;5.78;;;;;;;19.64;88.72;98341.31;5005859;28;20129;-58
2022/09/03 02:43:49;;;;;;;7.80;5.85;;;;;;;19.35;90.96;98346.91;5011467;28;20041;-61
2022/09/03 02:46:21;;;;;;;8.13;5.90;;;;;;;19.28;91.96;98354.03;5032147;28;20031;-58
2022/09/03 02:48:47;;;;;;;8.55;6.03;;;;;;;19.26;93.44;98355.25;5018399;28;20030;-62
2022/09/03 02:51:12;;;;;;;9.88;6.43;;;;;;;19.13;93.40;98356.91;5013666;28;20046;-61
2022/09/03 02:53:38;;;;;;;9.60;6.88;;;;;;;19.09;94.69;98353.03;5017989;28;20400;-61
2022/09/03 02:56:03;;;;;;;8.77;6.07;;;;;;;19.09;93.83;98350.41;5001095;28;20033;-60
2022/09/03 02:58:30;;;;;;;9.95;6.80;;;;;;;19.03;93.07;98340.72;5005131;28;20094;-60
2022/09/03 03:00:56;;;;;;;9.82;7.05;;;;;;;18.96;93.08;98343.34;5018426;28;20101;-56
2022/09/03 03:03:21;;;;;;;9.45;6.82;;;;;;;18.92;92.84;98307.09;5001877;28;20710;-57
2022/09/03 03:05:54;;;;;;;8.30;6.63;;;;;;;19.21;93.41;98327.69;5015227;28;20067;-59
2022/09/03 03:08:24;;;;;;;8.90;7.00;;;;;;;19.45;92.00;98356.22;5000386;28;20094;-59
2022/09/03 03:10:57;;;;;;;9.85;6.93;;;;;;;19.45;93.56;98354.38;5018108;28;20026;-58
2022/09/03 03:13:24;;;;;;;8.20;6.30;;;;;;;19.28;92.69;98348.75;5016156;28;20033;-59
2022/09/03 03:15:49;;;;;;;9.63;6.53;;;;;;;19.32;92.10;98364.97;5004438;28;20068;-58
2022/09/03 03:18:16;;;;;;;9.77;6.75;;;;;;;19.16;92.69;98369.66;5019881;28;20025;-59
2022/09/03 03:20:42;;;;;;;8.77;7.07;;;;;;;19.19;92.64;98363.97;5021109;28;20142;-58
2022/09/03 03:23:08;;;;;;;8.60;7.03;;;;;;;18.95;94.26;98331.19;5004951;28;20446;-58
2022/09/03 03:25:35;;;;;;;9.73;7.20;;;;;;;19.20;92.10;98347.16;5012678;28;20042;-60
2022/09/03 03:28:02;;;;;;;9.65;6.80;;;;;;;19.34;93.01;98341.84;5017735;28;20087;-60
2022/09/03 03:30:27;;;;;;;9.43;7.10;;;;;;;19.46;93.28;98345.47;5006861;28;20558;-59
2022/09/03 03:32:54;;;;;;;12.32;7.88;;;;;;;19.53;92.84;98348.06;5022964;28;20037;-60
2022/09/03 03:35:19;;;;;;;9.75;7.75;;;;;;;19.59;92.35;98342.75;5022999;28;20022;-60
2022/09/03 03:37:45;;;;;;;9.88;7.78;;;;;;;19.65;92.43;98337.69;5024684;28;20029;-60
2022/09/03 03:40:11;;;;;;;8.50;6.55;;;;;;;19.36;91.88;98311.63;4998960;28;20041;-61
2022/09/03 03:42:36;;;;;;;9.25;6.28;;;;;;;19.31;91.83;98335.19;5010039;28;20458;-60
2022/09/03 03:45:02;;;;;;;8.55;6.35;;;;;;;19.03;92.25;98303.81;5017058;28;20781;-59
2022/09/03 03:47:31;;;;;;;9.25;7.18;;;;;;;19.29;92.31;98333.75;5030403;28;20022;-60
2022/09/03 03:49:57;;;;;;;9.43;7.63;;;;;;;19.24;92.92;98339.66;5015424;28;20040;-61
2022/09/03 03:52:23;;;;;;;8.15;6.75;;;;;;;19.34;92.86;98339.22;5016879;28;20029;-57
2022/09/03 03:54:49;;;;;;;9.73;7.05;;;;;;;19.19;94.00;98342.91;5002164;28;20811;-59
2022/09/03 03:57:15;;;;;;;10.02;7.20;;;;;;;19.01;93.67;98346.19;5001015;28;20499;-59
2022/09/03 03:59:41;;;;;;;11.10;8.10;;;;;;;19.07;94.29;98335.84;4998735;28;20022;-59
2022/09/03 04:02:06;;;;;;;9.13;7.45;;;;;;;19.02;94.49;98345.16;5014623;28;20113;-61
2022/09/03 04:04:31;;;;;;;9.13;7.50;;;;;;;19.12;94.26;98336.03;5016132;28;20095;-57
2022/09/03 04:06:57;;;;;;;9.48;7.03;;;;;;;19.13;93.40;98342.91;5010685;28;20167;-58
2022/09/03 04:09:22;;;;;;;10.18;6.88;;;;;;;19.06;94.73;98324.50;5000398;28;20038;-59
2022/09/03 04:11:49;;;;;;;9.68;6.82;;;;;;;18.93;93.91;98293.72;5018275;28;20472;-58
2022/09/03 04:14:16;;;;;;;10.02;6.85;;;;;;;19.13;94.52;98324.47;5015530;28;20083;-57
2022/09/03 04:16:45;;;;;;;9.93;7.22;;;;;;;19.07;95.90;98301.59;5018643;28;20029;-58
2022/09/03 04:19:11;;;;;;;11.73;8.17;;;;;;;19.17;96.90;98318.59;5015733;28;20034;-60
2022/09/03 04:21:37;;;;;;;12.88;9.23;;;;;;;18.83;98.30;98277.53;5005064;28;20276;-58
2022/09/03 04:24:03;;;;;;;9.68;7.95;;;;;;;19.02;99.30;98318.81;5004527;28;20044;-58
2022/09/03 04:26:30;;;;;;;9.68;7.60;;;;;;;19.16;98.14;98322.22;5018820;28;20092;-59
2022/09/03 04:28:56;;;;;;;10.43;8.15;;;;;;;19.08;97.76;98319.81;4999657;28;20040;-61
2022/09/03 04:31:22;;;;;;;9.88;7.72;;;;;;;18.96;96.04;98308.28;5013245;28;20052;-60
2022/09/03 04:33:47;;;;;;;10.43;6.88;;;;;;;19.09;95.19;98323.25;5019200;28;20540;-59
2022/09/03 04:36:20;;;;;;;10.30;7.03;;;;;;;19.08;95.10;98321.66;5019692;28;20033;-58
2022/09/03 04:38:47;;;;;;;8.02;6.75;;;;;;;19.00;93.83;98318.22;5012005;28;20164;-59
2022/09/03 04:41:18;;;;;;;9.95;7.50;;;;;;;18.75;94.51;98283.00;5002736;28;20548;-60
2022/09/03 04:43:44;;;;;;;9.07;6.90;;;;;;;19.02;93.44;98320.66;5013608;28;20025;-60
2022/09/03 04:46:11;;;;;;;8.90;7.30;;;;;;;18.96;93.23;98329.38;5016184;28;20029;-61
2022/09/03 04:48:37;;;;;;;9.38;7.03;;;;;;;18.86;93.97;98315.81;5007597;28;20026;-58
2022/09/03 04:51:05;;;;;;;9.50;7.13;;;;;;;18.95;93.20;98325.13;5020062;28;20071;-59
2022/09/03 04:53:33;;;;;;;8.10;6.25;;;;;;;18.72;93.44;98286.81;4999950;28;20030;-59
2022/09/03 04:55:58;;;;;;;8.55;6.82;;;;;;;18.69;98.60;98289.06;5004366;28;20037;-58
2022/09/03 04:58:24;;;;;;;10.27;7.30;;;;;;;18.79;99.00;98321.88;5011468;28;20595;-60
2022/09/03 05:00:49;;;;;;;9.40;6.75;;;;;;;18.78;100.00;98324.69;5013148;28;20031;-57
2022/09/03 05:03:15;;;;;;;10.55;7.43;;;;;;;18.72;100.00;98326.31;5006266;28;20095;-57
2022/09/03 05:05:41;;;;;;;9.95;7.35;;;;;;;18.67;100.00;98335.84;5007640;28;20033;-58
2022/09/03 05:08:06;;;;;;;10.10;8.23;;;;;;;18.51;100.00;98337.06;5016238;28;20117;-58
2022/09/03 05:10:32;;;;;;;11.50;7.75;;;;;;;18.49;100.00;98349.63;4988904;28;20034;-56
2022/09/03 05:13:03;;;;;;;9.13;7.55;;;;;;;18.49;100.00;98350.44;5001253;28;20769;-56
2022/09/03 05:15:30;;;;;;;10.38;7.68;;;;;;;18.35;100.00;98352.25;4987099;28;20034;-56
2022/09/03 05:17:58;;;;;;;10.07;7.50;;;;;;;18.25;100.00;98351.81;4968721;28;20029;-56
2022/09/03 05:20:24;;;;;;;11.02;7.53;;;;;;;18.22;100.00;98360.13;5021175;28;20034;-60
2022/09/03 05:22:49;;;;;;;10.63;7.15;;;;;;;18.20;100.00;98359.53;5002673;28;20140;-56
2022/09/03 05:25:15;;;;;;;8.00;6.10;;;;;;;18.10;100.00;98364.34;5010175;28;20432;-56
2022/09/03 05:27:41;;;;;;;7.15;4.75;;;;;;;17.93;100.00;98366.56;5000070;28;20049;-54
2022/09/03 05:30:06;;;;;;;7.80;4.72;;;;;;;17.82;100.00;98354.75;5006641;28;20072;-56
2022/09/03 05:32:33;;;;;;;8.10;4.95;;;;;;;17.78;100.00;98350.88;5014942;28;20085;-56
2022/09/03 05:34:58;;;;;;;8.73;5.05;;;;;;;17.55;100.00;98319.66;5000600;28;20562;-56
2022/09/03 05:37:24;;;;;;;9.40;4.85;;;;;;;17.75;100.00;98361.81;5003446;28;20208;-54
2022/09/03 05:39:49;;;;;;;6.10;4.13;;;;;;;17.63;100.00;98359.75;5003386;28;20080;-56
2022/09/03 05:42:15;;;;;;;7.93;4.18;;;;;;;17.45;100.00;98338.41;5039288;28;20029;-56
2022/09/03 05:44:40;;;;;;;7.70;4.30;;;;;;;17.29;100.00;98329.06;4997704;28;20114;-57
2022/09/03 05:47:06;;;;;;;6.90;4.10;;;;;;;17.60;100.00;98369.84;5021671;28;20033;-57
2022/09/03 05:49:31;;;;;;;6.30;3.30;;;;;;;17.34;100.00;98349.47;5008455;28;20045;-56
2022/09/03 05:51:56;;;;;;;6.05;3.47;;;;;;;17.22;100.00;98346.59;5001925;28;20026;-57
2022/09/03 05:54:22;;;;;;;5.78;3.10;;;;;;;17.20;100.00;98352.03;5035524;28;21443;-57
2022/09/03 05:56:48;;;;;;;5.53;3.08;;;;;;;17.40;100.00;98377.63;5008078;28;20104;-56
2022/09/03 05:59:14;;;;;;;5.13;2.95;;;;;;;17.20;100.00;98351.25;4989104;28;20083;-55
2022/09/03 06:01:41;;;;;;;5.70;3.20;;;;;;;17.21;100.00;98387.00;5007915;28;20073;-56
2022/09/03 06:04:12;;;;;;;5.85;3.10;;;;;;;17.25;100.00;98396.16;5010908;28;20029;-54
2022/09/03 06:06:39;;;;;;;5.63;3.28;;;;;;;17.20;100.00;98404.59;5017101;28;20030;-53
2022/09/03 06:09:12;;;;;;;5.97;3.28;;;;;;;16.92;100.00;98370.47;5011506;28;20472;-55
2022/09/03 06:11:39;;;;;;;5.40;3.55;;;;;;;16.96;100.00;98376.13;5012509;28;20379;-55
2022/09/03 06:14:10;;;;;;;6.15;3.55;;;;;;;17.03;100.00;98398.81;5019489;28;20029;-60
2022/09/03 06:16:48;;;;;;;5.60;3.45;;;;;;;17.15;100.00;98403.53;5038186;28;20369;-55
2022/09/03 06:19:14;;;;;;;5.88;3.65;;;;;;;17.16;100.00;98398.09;5008840;28;20030;-59
2022/09/03 06:21:41;;;;;;;7.18;4.18;;;;;;;17.16;100.00;98394.63;4970955;28;20048;-56
2022/09/03 06:24:16;;;;;;;6.57;4.15;;;;;;;17.18;100.00;98393.47;5011670;28;20428;-58
2022/09/03 06:26:42;;;;;;;5.95;4.38;;;;;;;17.25;100.00;98396.16;5020528;28;20135;-57
2022/09/03 06:29:07;;;;;;;5.60;3.95;;;;;;;17.23;100.00;98392.88;4998442;28;20159;-57
2022/09/03 06:31:34;;;;;;;6.80;4.72;;;;;;;17.27;100.00;98389.69;5040700;28;20061;-58
2022/09/03 06:34:00;;;;;;;7.28;4.57;;;;;;;17.28;100.00;98398.38;5015237;28;20034;-57
2022/09/03 06:36:25;;;;;;;6.95;4.68;;;;;;;17.33;100.00;98388.09;5007253;28;20038;-59
2022/09/03 06:38:53;;;;;;;9.77;5.07;;;;;;;17.11;100.00;98358.47;5002064;28;20890;-56
2022/09/03 06:41:23;;;;;;;7.55;4.30;;;;;;;17.28;100.00;98386.03;5008213;28;20041;-57
2022/09/03 06:43:53;;;;;;;6.03;4.30;;;;;;;17.34;100.00;98370.50;5008126;28;20060;-56
2022/09/03 06:46:20;;;;;;;;;;;;;;;17.35;100.00;98375.56;5020150;28;20044;-57
2022/09/03 06:48:46;;;;;;;9.32;4.93;;;;;;;17.31;100.00;98371.72;5015240;28;19917;-55
2022/09/03 06:51:23;;;;;;;8.23;4.85;;;;;;;17.30;100.00;98375.31;5009027;28;20034;-59
2022/09/03 06:53:51;;;;;;;7.43;5.03;;;;;;;17.35;100.00;98390.53;5009395;28;20034;-58
2022/09/03 06:56:21;;;;;;;7.20;4.90;;;;;;;17.27;100.00;98367.84;5009639;28;20089;-57
2022/09/03 06:58:47;;;;;;;9.05;5.45;;;;;;;17.33;100.00;98379.41;5044042;28;20503;-56
2022/09/03 07:01:18;;;;;;;8.65;5.00;;;;;;;17.33;100.00;98371.53;5008024;28;20033;-57
2022/09/03 07:03:45;;;;;;;9.15;5.43;;;;;;;17.31;100.00;98370.91;5013660;28;20030;-57
2022/09/03 07:06:21;;;;;;;8.38;5.03;;;;;;;17.38;100.00;98369.13;5014478;28;20060;-56
2022/09/03 07:08:46;;;;;;;7.20;5.22;;;;;;;17.35;100.00;98367.69;5012928;28;20129;-63
2022/09/03 07:11:14;;;;;;;6.95;4.82;;;;;;;17.42;100.00;98378.25;5012543;28;20665;-56
2022/09/03 07:13:45;;;;;;;6.22;4.88;;;;;;;17.45;100.00;98372.56;5013694;28;20022;-56
2022/09/03 07:16:28;;;;;;;10.45;5.05;;;;;;;17.51;100.00;98374.44;5009258;28;20045;-55
2022/09/03 07:18:54;;;;;;;8.45;5.30;;;;;;;17.53;100.00;98364.53;5014667;28;20030;-62
2022/09/03 07:21:25;;;;;;;8.95;5.40;;;;;;;17.43;100.00;98335.16;5000935;28;21076;-55
2022/09/03 07:23:52;;;;;;;9.77;5.63;;;;;;;17.63;100.00;98380.78;5018585;28;20026;-58
2022/09/03 07:26:20;;;;;;;8.95;4.65;;;;;;;17.65;100.00;98376.13;5016662;28;20030;-58
2022/09/03 07:28:47;;;;;;;9.20;5.90;;;;;;;17.65;100.00;98372.66;5004082;28;20041;-57
2022/09/03 07:31:17;;;;;;;8.07;6.13;;;;;;;17.65;100.00;98362.16;5016410;28;20069;-57
2022/09/03 07:33:43;;;;;;;7.60;5.13;;;;;;;17.73;100.00;98366.44;5011942;28;20054;-57
2022/09/03 07:36:11;;;;;;;7.32;5.22;;;;;;;17.85;100.00;98378.88;5025027;28;20053;-56
2022/09/03 07:38:36;;;;;;;7.47;5.72;;;;;;;17.58;100.00;98345.56;5043905;28;21028;-62
2022/09/03 07:41:04;;;;;;;8.70;5.70;;;;;;;17.65;100.00;98357.72;5021380;28;20586;-58
2022/09/03 07:43:38;;;;;;;9.25;5.32;;;;;;;17.86;100.00;98387.56;5015439;28;20045;-59
2022/09/03 07:46:05;;;;;;;8.07;5.65;;;;;;;17.87;100.00;98386.56;5045945;28;20532;-58
2022/09/03 07:48:31;;;;;;;7.18;5.35;;;;;;;17.95;100.00;98388.19;5009306;28;20108;-59
2022/09/03 07:51:00;;;;;;;8.10;5.18;;;;;;;17.78;100.00;98351.69;5007600;28;20025;-58
2022/09/03 07:53:26;;;;;;;7.40;5.05;;;;;;;17.86;100.00;98362.06;4991491;28;20396;-60
2022/09/03 07:55:51;;;;;;;6.10;4.40;;;;;;;17.97;100.00;98381.72;5042584;28;20815;-58
2022/09/03 07:58:17;;;;;;;5.90;4.00;;;;;;;17.82;100.00;98352.13;4993784;28;20026;-58
2022/09/03 08:00:42;;;;;;;5.55;3.80;;;;;;;18.01;99.79;98387.41;5013444;28;20045;-59
2022/09/03 08:03:08;;;;;;;5.97;3.92;;;;;;;18.02;100.00;98394.28;5007583;28;20134;-58
2022/09/03 08:05:36;;;;;;;5.70;3.67;;;;;;;18.11;100.00;98389.63;5005996;28;20484;-58
2022/09/03 08:08:03;;;;;;;5.30;3.70;;;;;;;18.00;97.56;98367.38;5011328;28;20033;-58
2022/09/03 08:10:30;;;;;;;5.20;3.30;;;;;;;18.21;98.58;98405.88;5011543;28;20068;-58
2022/09/03 08:12:57;;;;;;;5.20;3.10;;;;;;;18.32;98.89;98404.47;5016021;28;20034;-58
2022/09/03 08:15:24;;;;;;;6.88;4.00;;;;;;;18.48;98.13;98412.00;5000952;28;20033;-60
2022/09/03 08:17:50;;;;;;;6.05;3.88;;;;;;;18.49;97.93;98416.25;5018637;28;20445;-59
2022/09/03 08:20:15;;;;;;;7.50;4.10;;;;;;;18.43;97.56;98409.94;5011807;28;20022;-59
2022/09/03 08:22:40;;;;;;;6.53;3.70;;;;;;;18.22;98.82;98378.56;5007473;28;20030;-59
2022/09/03 08:25:06;;;;;;;5.22;3.08;;;;;;;18.50;96.21;98414.44;5009078;28;20469;-60
2022/09/03 08:27:32;;;;;;;7.05;4.00;;;;;;;18.53;97.69;98420.13;5041750;28;20036;-59
2022/09/03 08:29:57;;;;;;;5.45;3.30;;;;;;;18.58;96.80;98430.84;4996437;28;20060;-59
2022/09/03 08:32:23;;;;;;;6.03;3.10;;;;;;;18.63;96.55;98425.78;4998704;28;20118;-57
2022/09/03 08:34:49;;;;;;;5.38;3.13;;;;;;;18.17;96.96;98352.03;5010704;28;20672;-57
2022/09/03 08:37:15;;;;;;;5.82;3.22;;;;;;;18.75;98.18;98423.38;5011715;28;20139;-58
2022/09/03 08:39:40;;;;;;;5.20;3.30;;;;;;;18.75;95.59;98431.28;5000913;28;20851;-58
2022/09/03 08:42:20;;;;;;;5.85;3.45;;;;;;;18.71;95.51;98424.78;5019146;28;20137;-59
2022/09/03 08:44:46;;;;;;;6.13;3.60;;;;;;;18.70;96.09;98431.06;5013257;28;20743;-59
2022/09/03 08:47:34;;;;;;;5.57;2.92;;;;;;;18.67;97.02;98415.66;5016150;28;20445;-63
2022/09/03 08:50:21;;;;;;;5.45;3.50;;;;;;;18.78;96.33;98435.31;5009330;28;20033;-60
2022/09/03 08:52:50;;;;;;;5.90;3.40;;;;;;;18.49;95.23;98413.63;5012248;28;20135;-60
2022/09/03 08:55:26;;;;;;;6.03;3.60;;;;;;;18.49;96.43;98411.00;5000440;28;20060;-60
2022/09/03 08:58:17;;;;;;;6.15;3.83;;;;;;;18.86;98.61;98448.34;5016319;28;20036;-61
2022/09/03 09:00:47;;;;;;;5.70;3.60;;;;;;;18.73;97.39;98446.47;5015244;28;20021;-60
2022/09/03 09:03:54;;;;;;;5.93;3.30;;;;;;;18.72;96.28;98458.00;5012529;28;20065;-61
2022/09/03 09:06:30;;;;;;;6.10;4.20;;;;;;;18.72;96.04;98457.19;5002659;28;20064;-60
2022/09/03 09:09:17;;;;;;;10.15;4.35;;;;;;;18.78;97.08;98464.28;5015362;28;20500;-58
2022/09/03 09:12:03;;;;;;;7.50;3.85;;;;;;;18.59;97.77;98437.72;5023384;28;20038;-59
2022/09/03 09:14:47;;;;;;;7.80;4.03;;;;;;;18.84;97.79;98468.78;5004780;28;20461;-62
2022/09/03 09:17:41;;;;;;;6.82;3.78;;;;;;;18.89;96.77;98455.00;5016528;28;20115;-63
2022/09/03 09:20:30;;;;;;;6.13;4.25;;;;;;;19.02;98.26;98468.22;5005771;28;20214;-62
2022/09/03 09:23:04;;;;;;;5.43;3.75;;;;;;;18.93;95.50;98477.28;5043012;28;20405;-62
2022/09/03 09:25:31;;;;;;;6.38;4.10;;;;;;;18.95;96.26;98475.28;5002006;28;20038;-63
2022/09/03 09:28:02;;;;;;;6.95;3.60;;;;;;;18.88;95.00;98477.91;5009282;28;20022;-59
2022/09/03 09:30:29;;;;;;;6.90;3.45;;;;;;;18.83;95.79;98477.69;4997161;28;20128;-61
2022/09/03 09:32:55;;;;;;;5.88;3.95;;;;;;;18.74;95.11;98478.88;4992696;28;20036;-60
2022/09/03 09:35:21;;;;;;;6.90;3.97;;;;;;;18.83;94.55;98467.16;5023192;28;20524;-58
2022/09/03 09:37:55;;;;;;;5.43;3.30;;;;;;;18.99;92.30;98476.50;4994419;28;20144;-61
2022/09/03 09:40:33;;;;;;;6.75;3.88;;;;;;;18.97;94.01;98475.91;5016232;28;20064;-59
2022/09/03 09:43:06;;;;;;;6.03;3.40;;;;;;;19.00;92.94;98476.31;5004503;28;20056;-60
2022/09/03 09:45:35;;;;;;;6.03;3.45;;;;;;;19.08;91.45;98461.31;5003748;28;20049;-58
2022/09/03 09:48:01;;;;;;;5.75;3.22;;;;;;;18.92;91.46;98421.16;5005414;28;20036;-58
2022/09/03 09:50:27;;;;;;;6.13;3.60;;;;;;;19.35;89.24;98456.84;5003427;28;20030;-61
2022/09/03 09:53:02;;;;;;;5.05;3.17;;;;;;;19.27;88.78;98422.75;5015716;28;20692;-57
2022/09/03 09:55:28;;;;;;;5.03;2.90;;;;;;;19.59;86.57;98465.91;5033556;28;20304;-57
2022/09/03 09:58:05;;;;;;;6.30;3.63;;;;;;;19.56;87.67;98445.22;5013348;28;20032;-59
2022/09/03 10:00:33;;;;;;;5.28;3.38;;;;;;;19.68;87.16;98456.75;5017238;28;20500;-61
2022/09/03 10:02:59;;;;;;;5.25;3.42;;;;;;;19.74;87.45;98461.22;5013899;28;20456;-60
2022/09/03 10:05:26;;;;;;;6.43;4.15;;;;;;;19.74;86.44;98468.34;5024729;28;20246;-61
2022/09/03 10:08:19;;;;;;;5.53;3.17;;;;;;;19.76;86.98;98466.28;5020977;28;20550;-59
2022/09/03 10:10:50;;;;;;;7.05;3.28;;;;;;;19.91;85.84;98463.41;5016833;28;20493;-59
2022/09/03 10:13:18;;;;;;;5.93;3.80;;;;;;;19.98;85.26;98465.00;5004009;28;20068;-59
2022/09/03 10:15:49;;;;;;;6.03;3.88;;;;;;;19.72;84.87;98434.22;5039136;28;20691;-59
2022/09/03 10:18:36;;;;;;;5.35;3.47;;;;;;;20.04;85.16;98465.19;5015443;28;20018;-57
2022/09/03 10:21:09;;;;;;;5.88;3.60;;;;;;;20.03;84.44;98464.38;5014976;28;20025;-60
2022/09/03 10:23:56;;;;;;;5.43;3.55;;;;;;;19.83;84.30;98424.88;5017987;28;20103;-58
2022/09/03 10:26:28;;;;;;;5.63;3.70;;;;;;;20.16;84.82;98450.31;5022882;28;20113;-57
2022/09/03 10:28:56;;;;;;;6.20;3.20;;;;;;;20.24;87.09;98454.53;5011093;28;20041;-59
2022/09/03 10:31:31;;;;;;;6.13;3.40;;;;;;;19.90;88.17;98411.66;4998685;28;20116;-58
2022/09/03 10:34:08;;;;;;;5.78;3.30;;;;;;;19.95;84.11;98441.69;5017372;28;20036;-59
2022/09/03 10:36:51;;;;;;;4.68;2.63;;;;;;;19.86;85.21;98429.75;5046718;28;20124;-58
2022/09/03 10:39:36;;;;;;;5.90;3.47;;;;;;;20.20;85.42;98463.91;4999257;28;20183;-59
2022/09/03 10:42:20;;;;;;;5.05;3.30;;;;;;;20.27;84.94;98460.19;5014703;28;20074;-59
2022/09/03 10:45:12;;;;;;;5.03;3.05;;;;;;;20.34;85.25;98455.69;5014861;28;20030;-57
2022/09/03 10:47:52;;;;;;;5.53;3.50;;;;;;;20.26;86.04;98455.13;5026058;28;20039;-59
2022/09/03 10:50:30;;;;;;;6.65;3.67;;;;;;;20.09;84.50;98452.16;5016510;28;20171;-60
2022/09/03 10:53:16;;;;;;;5.72;3.78;;;;;;;20.10;85.41;98462.53;4997409;28;20033;-58
2022/09/03 10:55:52;;;;;;;5.70;3.53;;;;;;;20.01;84.98;98465.63;5011635;28;20030;-60
2022/09/03 10:58:37;;;;;;;6.18;3.95;;;;;;;19.99;86.26;98457.91;5024767;28;20042;-60
2022/09/03 11:01:17;;;;;;;5.60;3.65;;;;;;;20.09;85.39;98468.81;5007668;28;20034;-59
2022/09/03 11:03:51;;;;;;;5.97;3.75;;;;;;;20.03;87.05;98464.38;5006471;28;20141;-58
2022/09/03 11:06:46;;;;;;;6.55;4.28;;;;;;;20.02;86.71;98469.84;4998534;28;20818;-58
2022/09/03 11:09:41;;;;;;;6.88;4.43;;;;;;;20.14;86.92;98458.44;5004642;28;20029;-60
2022/09/03 11:12:21;;;;;;;5.95;4.20;;;;;;;20.17;85.63;98454.59;5014428;28;20052;-60
2022/09/03 11:15:22;;;;;;;7.22;4.10;;;;;;;20.28;85.58;98463.63;4996664;28;21644;-56
2022/09/03 11:17:55;;;;;;;6.78;4.43;;;;;;;20.39;84.62;98452.44;5011633;28;20041;-57
2022/09/03 11:20:23;;;;;;;8.68;4.10;;;;;;;20.59;86.91;98457.59;5021889;28;20340;-58
2022/09/03 11:22:55;;;;;;;6.45;4.50;;;;;;;20.38;85.45;98413.84;4998303;28;20532;-58
2022/09/03 11:25:24;;;;;;;5.70;3.85;;;;;;;20.82;84.80;98453.59;5016716;28;20106;-59
2022/09/03 11:28:10;;;;;;;5.85;3.58;;;;;;;20.80;84.57;98450.38;5029684;28;20026;-60
2022/09/03 11:30:51;;;;;;;6.13;3.83;;;;;;;20.58;84.11;98453.31;5012360;28;20749;-60
2022/09/03 11:33:20;;;;;;;6.30;3.67;;;;;;;20.51;83.10;98444.63;5009342;28;20546;-60
2022/09/03 11:35:55;;;;;;;5.53;3.80;;;;;;;20.43;82.47;98460.75;5000677;28;20087;-60
2022/09/03 11:38:26;;;;;;;5.70;3.10;;;;;;;20.32;83.06;98459.59;5016100;28;20115;-59
2022/09/03 11:41:11;;;;;;;6.47;3.55;;;;;;;20.03;83.27;98424.78;5011626;28;20479;-58
2022/09/03 11:43:37;;;;;;;6.28;3.58;;;;;;;20.13;85.08;98453.38;5009258;28;20049;-60
2022/09/03 11:46:29;;;;;;;5.65;3.30;;;;;;;20.24;85.15;98451.91;5011231;28;20437;-59
2022/09/03 11:49:16;;;;;;;6.97;4.38;;;;;;;20.14;83.96;98450.53;5008539;28;20045;-59
2022/09/03 11:51:42;;;;;;;5.88;3.63;;;;;;;20.29;85.10;98452.06;4987073;28;20045;-62
2022/09/03 11:54:19;;;;;;;6.10;3.40;;;;;;;20.26;82.74;98441.94;5015307;28;20032;-62